sensor_id;sensor_type;location;lat;lon;timestamp;P1;durP1;ratioP1;P2;durP2;ratioP2
75885;SDS011;64561;44.018;10.144;2023-07-13T00:02:05;10.30;;;5.65;;
75885;SDS011;64561;44.018;10.144;2023-07-13T00:04:32;8.40;;;4.70;;
75885;SDS011;64561;44.018;10.144;2023-07-13T00:07:00;10.02;;;5.57;;
75885;SDS011;64561;44.018;10.144;2023-07-13T00:09:27;10.52;;;5.22;;
75885;SDS011;64561;44.018;10.144;2023-07-13T00:11:55;9.77;;;5.32;;
75885;SDS011;64561;44.018;10.144;2023-07-13T00:14:25;10.75;;;5.18;;
75885;SDS011;64561;44.018;10.144;2023-07-13T00:16:54;10.23;;;6.00;;
75885;SDS011;64561;44.018;10.144;2023-07-13T00:19:22;16.45;;;5.80;;
75885;SDS011;64561;44.018;10.144;2023-07-13T00:21:49;9.43;;;5.63;;
75885;SDS011;64561;44.018;10.144;2023-07-13T00:24:17;9.38;;;5.63;;
75885;SDS011;64561;44.018;10.144;2023-07-13T00:26:51;13.55;;;6.65;;
75885;SDS011;64561;44.018;10.144;2023-07-13T00:29:18;10.57;;;5.80;;
75885;SDS011;64561;44.018;10.144;2023-07-13T00:31:45;12.63;;;6.25;;
75885;SDS011;64561;44.018;10.144;2023-07-13T00:34:13;13.43;;;5.53;;
75885;SDS011;64561;44.018;10.144;2023-07-13T00:36:40;10.13;;;5.80;;
75885;SDS011;64561;44.018;10.144;2023-07-13T00:39:07;10.95;;;5.60;;
75885;SDS011;64561;44.018;10.144;2023-07-13T00:41:35;11.07;;;6.30;;
75885;SDS011;64561;44.018;10.144;2023-07-13T00:44:03;10.73;;;6.00;;
75885;SDS011;64561;44.018;10.144;2023-07-13T00:46:32;7.30;;;5.90;;
75885;SDS011;64561;44.018;10.144;2023-07-13T00:49:03;8.50;;;5.57;;
75885;SDS011;64561;44.018;10.144;2023-07-13T00:51:37;11.48;;;5.15;;
75885;SDS011;64561;44.018;10.144;2023-07-13T00:54:10;13.40;;;6.38;;
75885;SDS011;64561;44.018;10.144;2023-07-13T00:56:42;10.98;;;5.75;;
75885;SDS011;64561;44.018;10.144;2023-07-13T00:59:12;12.88;;;6.57;;
75885;SDS011;64561;44.018;10.144;2023-07-13T01:01:41;9.55;;;5.38;;
75885;SDS011;64561;44.018;10.144;2023-07-13T01:04:09;14.77;;;6.50;;
75885;SDS011;64561;44.018;10.144;2023-07-13T01:06:37;8.52;;;6.10;;
75885;SDS011;64561;44.018;10.144;2023-07-13T01:09:07;9.57;;;5.53;;
75885;SDS011;64561;44.018;10.144;2023-07-13T01:11:36;8.60;;;6.03;;
75885;SDS011;64561;44.018;10.144;2023-07-13T01:14:03;10.45;;;6.00;;
75885;SDS011;64561;44.018;10.144;2023-07-13T01:16:31;11.27;;;6.80;;
75885;SDS011;64561;44.018;10.144;2023-07-13T01:19:00;10.20;;;5.72;;
75885;SDS011;64561;44.018;10.144;2023-07-13T01:21:32;8.25;;;5.40;;
75885;SDS011;64561;44.018;10.144;2023-07-13T01:24:00;10.88;;;5.38;;
75885;SDS011;64561;44.018;10.144;2023-07-13T01:26:29;14.55;;;7.35;;
75885;SDS011;64561;44.018;10.144;2023-07-13T01:28:57;12.45;;;6.50;;
75885;SDS011;64561;44.018;10.144;2023-07-13T01:31:25;10.45;;;5.95;;
75885;SDS011;64561;44.018;10.144;2023-07-13T01:33:53;11.73;;;6.18;;
75885;SDS011;64561;44.018;10.144;2023-07-13T01:36:20;12.13;;;7.32;;
75885;SDS011;64561;44.018;10.144;2023-07-13T01:38:48;10.43;;;5.80;;
75885;SDS011;64561;44.018;10.144;2023-07-13T01:41:15;11.45;;;5.93;;
75885;SDS011;64561;44.018;10.144;2023-07-13T01:43:42;11.95;;;6.20;;
75885;SDS011;64561;44.018;10.144;2023-07-13T01:46:09;9.55;;;6.28;;
75885;SDS011;64561;44.018;10.144;2023-07-13T01:48:50;10.18;;;5.63;;
75885;SDS011;64561;44.018;10.144;2023-07-13T01:51:18;13.80;;;6.53;;
75885;SDS011;64561;44.018;10.144;2023-07-13T01:53:46;9.32;;;6.22;;
75885;SDS011;64561;44.018;10.144;2023-07-13T01:56:13;13.23;;;6.38;;
75885;SDS011;64561;44.018;10.144;2023-07-13T01:58:40;13.02;;;6.65;;
75885;SDS011;64561;44.018;10.144;2023-07-13T02:01:07;11.02;;;6.57;;
75885;SDS011;64561;44.018;10.144;2023-07-13T02:03:34;14.13;;;6.03;;
75885;SDS011;64561;44.018;10.144;2023-07-13T02:06:01;10.20;;;6.30;;
75885;SDS011;64561;44.018;10.144;2023-07-13T02:08:30;13.10;;;7.50;;
75885;SDS011;64561;44.018;10.144;2023-07-13T02:10:58;9.93;;;6.38;;
75885;SDS011;64561;44.018;10.144;2023-07-13T02:13:26;11.05;;;6.72;;
75885;SDS011;64561;44.018;10.144;2023-07-13T02:15:53;11.45;;;6.82;;
75885;SDS011;64561;44.018;10.144;2023-07-13T02:18:20;18.30;;;7.45;;
75885;SDS011;64561;44.018;10.144;2023-07-13T02:21:07;11.15;;;7.43;;
75885;SDS011;64561;44.018;10.144;2023-07-13T02:23:35;10.88;;;7.35;;
75885;SDS011;64561;44.018;10.144;2023-07-13T02:26:03;13.15;;;6.88;;
75885;SDS011;64561;44.018;10.144;2023-07-13T02:28:30;16.10;;;7.75;;
75885;SDS011;64561;44.018;10.144;2023-07-13T02:31:04;14.00;;;7.35;;
75885;SDS011;64561;44.018;10.144;2023-07-13T02:33:32;9.20;;;6.82;;
75885;SDS011;64561;44.018;10.144;2023-07-13T02:35:59;8.63;;;6.07;;
75885;SDS011;64561;44.018;10.144;2023-07-13T02:38:26;11.77;;;6.53;;
75885;SDS011;64561;44.018;10.144;2023-07-13T02:40:54;13.00;;;6.63;;
75885;SDS011;64561;44.018;10.144;2023-07-13T02:43:21;10.15;;;6.07;;
75885;SDS011;64561;44.018;10.144;2023-07-13T02:45:48;12.45;;;7.22;;
75885;SDS011;64561;44.018;10.144;2023-07-13T02:48:16;10.60;;;6.65;;
75885;SDS011;64561;44.018;10.144;2023-07-13T02:50:44;15.93;;;6.90;;
75885;SDS011;64561;44.018;10.144;2023-07-13T02:53:11;15.85;;;7.28;;
75885;SDS011;64561;44.018;10.144;2023-07-13T02:55:39;11.00;;;6.53;;
75885;SDS011;64561;44.018;10.144;2023-07-13T02:58:07;12.48;;;6.60;;
75885;SDS011;64561;44.018;10.144;2023-07-13T03:00:34;13.60;;;6.90;;
75885;SDS011;64561;44.018;10.144;2023-07-13T03:03:08;13.57;;;6.68;;
75885;SDS011;64561;44.018;10.144;2023-07-13T03:05:37;12.73;;;6.68;;
75885;SDS011;64561;44.018;10.144;2023-07-13T03:08:04;15.43;;;8.07;;
75885;SDS011;64561;44.018;10.144;2023-07-13T03:10:33;10.05;;;6.38;;
75885;SDS011;64561;44.018;10.144;2023-07-13T03:13:02;13.80;;;7.75;;
75885;SDS011;64561;44.018;10.144;2023-07-13T03:15:29;13.77;;;6.47;;
75885;SDS011;64561;44.018;10.144;2023-07-13T03:17:57;9.68;;;6.72;;
75885;SDS011;64561;44.018;10.144;2023-07-13T03:20:24;14.35;;;7.28;;
75885;SDS011;64561;44.018;10.144;2023-07-13T03:22:51;11.48;;;6.97;;
75885;SDS011;64561;44.018;10.144;2023-07-13T03:25:19;20.85;;;7.32;;
75885;SDS011;64561;44.018;10.144;2023-07-13T03:27:47;12.25;;;6.78;;
75885;SDS011;64561;44.018;10.144;2023-07-13T03:30:15;14.75;;;7.55;;
75885;SDS011;64561;44.018;10.144;2023-07-13T03:32:43;9.23;;;6.90;;
75885;SDS011;64561;44.018;10.144;2023-07-13T03:35:10;13.73;;;8.07;;
75885;SDS011;64561;44.018;10.144;2023-07-13T03:37:37;13.63;;;7.45;;
75885;SDS011;64561;44.018;10.144;2023-07-13T03:40:13;13.45;;;8.93;;
75885;SDS011;64561;44.018;10.144;2023-07-13T03:42:45;19.27;;;11.23;;
75885;SDS011;64561;44.018;10.144;2023-07-13T03:45:15;48.45;;;27.30;;
75885;SDS011;64561;44.018;10.144;2023-07-13T03:47:42;47.58;;;27.13;;
75885;SDS011;64561;44.018;10.144;2023-07-13T03:50:09;39.63;;;22.85;;
75885;SDS011;64561;44.018;10.144;2023-07-13T03:52:40;38.88;;;21.70;;
75885;SDS011;64561;44.018;10.144;2023-07-13T03:55:07;31.25;;;19.83;;
75885;SDS011;64561;44.018;10.144;2023-07-13T03:57:34;32.45;;;20.63;;
75885;SDS011;64561;44.018;10.144;2023-07-13T04:00:06;28.38;;;16.95;;
75885;SDS011;64561;44.018;10.144;2023-07-13T04:02:41;22.60;;;15.43;;
75885;SDS011;64561;44.018;10.144;2023-07-13T04:05:08;19.75;;;13.07;;
75885;SDS011;64561;44.018;10.144;2023-07-13T04:07:35;20.33;;;11.80;;
75885;SDS011;64561;44.018;10.144;2023-07-13T04:10:02;17.83;;;11.25;;
75885;SDS011;64561;44.018;10.144;2023-07-13T04:12:30;16.00;;;11.05;;
75885;SDS011;64561;44.018;10.144;2023-07-13T04:14:57;20.30;;;11.75;;
75885;SDS011;64561;44.018;10.144;2023-07-13T04:17:24;20.05;;;11.40;;
75885;SDS011;64561;44.018;10.144;2023-07-13T04:19:51;19.05;;;11.55;;
75885;SDS011;64561;44.018;10.144;2023-07-13T04:22:18;18.38;;;13.25;;
75885;SDS011;64561;44.018;10.144;2023-07-13T04:24:45;17.40;;;12.90;;
75885;SDS011;64561;44.018;10.144;2023-07-13T04:27:12;28.48;;;16.58;;
75885;SDS011;64561;44.018;10.144;2023-07-13T04:29:39;27.05;;;16.75;;
75885;SDS011;64561;44.018;10.144;2023-07-13T04:32:07;27.90;;;18.65;;
75885;SDS011;64561;44.018;10.144;2023-07-13T04:34:34;35.75;;;21.05;;
75885;SDS011;64561;44.018;10.144;2023-07-13T04:37:01;35.67;;;19.77;;
75885;SDS011;64561;44.018;10.144;2023-07-13T04:39:28;27.27;;;14.90;;
75885;SDS011;64561;44.018;10.144;2023-07-13T04:41:55;21.33;;;12.00;;
75885;SDS011;64561;44.018;10.144;2023-07-13T04:44:23;19.60;;;12.13;;
75885;SDS011;64561;44.018;10.144;2023-07-13T04:46:49;17.50;;;11.95;;
75885;SDS011;64561;44.018;10.144;2023-07-13T04:49:17;18.27;;;12.00;;
75885;SDS011;64561;44.018;10.144;2023-07-13T04:51:44;17.35;;;12.10;;
75885;SDS011;64561;44.018;10.144;2023-07-13T04:54:12;19.45;;;12.07;;
75885;SDS011;64561;44.018;10.144;2023-07-13T04:56:39;17.95;;;11.20;;
75885;SDS011;64561;44.018;10.144;2023-07-13T04:59:06;19.65;;;10.70;;
75885;SDS011;64561;44.018;10.144;2023-07-13T05:01:33;14.60;;;9.55;;
75885;SDS011;64561;44.018;10.144;2023-07-13T05:04:01;15.32;;;10.20;;
75885;SDS011;64561;44.018;10.144;2023-07-13T05:06:28;14.23;;;10.30;;
75885;SDS011;64561;44.018;10.144;2023-07-13T05:08:57;13.07;;;9.70;;
75885;SDS011;64561;44.018;10.144;2023-07-13T05:11:24;13.02;;;9.15;;
75885;SDS011;64561;44.018;10.144;2023-07-13T05:13:51;12.88;;;8.32;;
75885;SDS011;64561;44.018;10.144;2023-07-13T05:16:18;13.85;;;7.90;;
75885;SDS011;64561;44.018;10.144;2023-07-13T05:18:46;17.60;;;9.10;;
75885;SDS011;64561;44.018;10.144;2023-07-13T05:21:13;11.15;;;7.80;;
75885;SDS011;64561;44.018;10.144;2023-07-13T05:23:40;11.25;;;7.88;;
75885;SDS011;64561;44.018;10.144;2023-07-13T05:26:08;9.63;;;7.45;;
75885;SDS011;64561;44.018;10.144;2023-07-13T05:28:36;19.85;;;9.23;;
75885;SDS011;64561;44.018;10.144;2023-07-13T05:31:04;15.43;;;10.85;;
75885;SDS011;64561;44.018;10.144;2023-07-13T05:33:34;15.55;;;8.63;;
75885;SDS011;64561;44.018;10.144;2023-07-13T05:36:01;17.40;;;9.45;;
75885;SDS011;64561;44.018;10.144;2023-07-13T05:38:29;11.13;;;7.10;;
75885;SDS011;64561;44.018;10.144;2023-07-13T05:40:56;12.23;;;7.82;;
75885;SDS011;64561;44.018;10.144;2023-07-13T05:43:24;22.95;;;9.82;;
75885;SDS011;64561;44.018;10.144;2023-07-13T05:45:55;29.35;;;9.93;;
75885;SDS011;64561;44.018;10.144;2023-07-13T05:48:23;15.18;;;8.60;;
75885;SDS011;64561;44.018;10.144;2023-07-13T05:50:51;15.88;;;8.70;;
75885;SDS011;64561;44.018;10.144;2023-07-13T05:53:18;223.57;;;32.50;;
75885;SDS011;64561;44.018;10.144;2023-07-13T05:55:46;55.00;;;14.18;;
75885;SDS011;64561;44.018;10.144;2023-07-13T05:58:17;26.00;;;9.43;;
75885;SDS011;64561;44.018;10.144;2023-07-13T06:00:45;16.35;;;8.02;;
75885;SDS011;64561;44.018;10.144;2023-07-13T06:03:15;14.88;;;8.15;;
75885;SDS011;64561;44.018;10.144;2023-07-13T06:05:42;13.90;;;7.85;;
75885;SDS011;64561;44.018;10.144;2023-07-13T06:08:10;41.80;;;10.38;;
75885;SDS011;64561;44.018;10.144;2023-07-13T06:10:37;125.95;;;21.20;;
75885;SDS011;64561;44.018;10.144;2023-07-13T06:13:04;79.68;;;16.60;;
75885;SDS011;64561;44.018;10.144;2023-07-13T06:15:32;29.20;;;9.63;;
75885;SDS011;64561;44.018;10.144;2023-07-13T06:18:00;17.23;;;7.50;;
75885;SDS011;64561;44.018;10.144;2023-07-13T06:20:27;417.98;;;56.53;;
75885;SDS011;64561;44.018;10.144;2023-07-13T06:22:55;300.73;;;44.33;;
75885;SDS011;64561;44.018;10.144;2023-07-13T06:25:22;168.73;;;25.98;;
75885;SDS011;64561;44.018;10.144;2023-07-13T06:27:50;116.97;;;22.40;;
75885;SDS011;64561;44.018;10.144;2023-07-13T06:30:17;108.75;;;18.35;;
75885;SDS011;64561;44.018;10.144;2023-07-13T06:32:44;112.95;;;18.20;;
75885;SDS011;64561;44.018;10.144;2023-07-13T06:35:11;202.43;;;29.88;;
75885;SDS011;64561;44.018;10.144;2023-07-13T06:37:40;90.68;;;15.68;;
75885;SDS011;64561;44.018;10.144;2023-07-13T06:40:07;33.10;;;9.07;;
75885;SDS011;64561;44.018;10.144;2023-07-13T06:42:35;19.83;;;9.15;;
75885;SDS011;64561;44.018;10.144;2023-07-13T06:45:02;14.82;;;7.50;;
75885;SDS011;64561;44.018;10.144;2023-07-13T06:47:31;15.80;;;7.05;;
75885;SDS011;64561;44.018;10.144;2023-07-13T06:50:00;14.25;;;7.22;;
75885;SDS011;64561;44.018;10.144;2023-07-13T06:52:30;25.55;;;9.80;;
75885;SDS011;64561;44.018;10.144;2023-07-13T06:54:57;17.88;;;8.30;;
75885;SDS011;64561;44.018;10.144;2023-07-13T06:57:24;18.83;;;8.07;;
75885;SDS011;64561;44.018;10.144;2023-07-13T06:59:51;16.00;;;7.00;;
75885;SDS011;64561;44.018;10.144;2023-07-13T07:02:18;14.43;;;8.40;;
75885;SDS011;64561;44.018;10.144;2023-07-13T07:04:45;13.10;;;8.55;;
75885;SDS011;64561;44.018;10.144;2023-07-13T07:07:12;16.27;;;8.40;;
75885;SDS011;64561;44.018;10.144;2023-07-13T07:09:40;14.98;;;8.40;;
75885;SDS011;64561;44.018;10.144;2023-07-13T07:12:07;11.35;;;6.93;;
75885;SDS011;64561;44.018;10.144;2023-07-13T07:14:34;15.43;;;6.88;;
75885;SDS011;64561;44.018;10.144;2023-07-13T07:17:01;9.30;;;6.32;;
75885;SDS011;64561;44.018;10.144;2023-07-13T07:19:29;12.20;;;6.53;;
75885;SDS011;64561;44.018;10.144;2023-07-13T07:21:57;13.15;;;6.93;;
75885;SDS011;64561;44.018;10.144;2023-07-13T07:24:24;14.57;;;7.10;;
75885;SDS011;64561;44.018;10.144;2023-07-13T07:26:52;10.90;;;6.60;;
75885;SDS011;64561;44.018;10.144;2023-07-13T07:29:22;18.50;;;7.65;;
75885;SDS011;64561;44.018;10.144;2023-07-13T07:31:52;18.50;;;7.18;;
75885;SDS011;64561;44.018;10.144;2023-07-13T07:36:49;15.45;;;7.18;;
75885;SDS011;64561;44.018;10.144;2023-07-13T07:41:46;13.02;;;7.53;;
75885;SDS011;64561;44.018;10.144;2023-07-13T07:46:44;11.25;;;6.60;;
75885;SDS011;64561;44.018;10.144;2023-07-13T07:49:11;16.80;;;7.90;;
75885;SDS011;64561;44.018;10.144;2023-07-13T07:51:38;15.63;;;7.03;;
75885;SDS011;64561;44.018;10.144;2023-07-13T07:54:06;12.25;;;6.85;;
75885;SDS011;64561;44.018;10.144;2023-07-13T07:56:33;14.07;;;6.53;;
75885;SDS011;64561;44.018;10.144;2023-07-13T07:59:03;14.70;;;6.55;;
75885;SDS011;64561;44.018;10.144;2023-07-13T08:01:33;21.25;;;8.07;;
75885;SDS011;64561;44.018;10.144;2023-07-13T08:04:03;14.27;;;6.78;;
75885;SDS011;64561;44.018;10.144;2023-07-13T08:06:33;13.73;;;7.57;;
75885;SDS011;64561;44.018;10.144;2023-07-13T08:09:04;15.07;;;7.47;;
75885;SDS011;64561;44.018;10.144;2023-07-13T08:11:31;12.80;;;7.00;;
75885;SDS011;64561;44.018;10.144;2023-07-13T08:14:01;15.30;;;6.95;;
75885;SDS011;64561;44.018;10.144;2023-07-13T08:16:28;13.98;;;6.40;;
75885;SDS011;64561;44.018;10.144;2023-07-13T08:18:57;11.27;;;7.03;;
75885;SDS011;64561;44.018;10.144;2023-07-13T08:21:24;14.98;;;7.60;;
75885;SDS011;64561;44.018;10.144;2023-07-13T08:23:51;13.27;;;7.15;;
75885;SDS011;64561;44.018;10.144;2023-07-13T08:26:18;13.68;;;5.72;;
75885;SDS011;64561;44.018;10.144;2023-07-13T08:28:45;16.92;;;6.53;;
75885;SDS011;64561;44.018;10.144;2023-07-13T08:31:13;13.38;;;7.80;;
75885;SDS011;64561;44.018;10.144;2023-07-13T08:33:41;16.27;;;6.53;;
75885;SDS011;64561;44.018;10.144;2023-07-13T08:36:08;12.93;;;6.65;;
75885;SDS011;64561;44.018;10.144;2023-07-13T08:38:35;11.15;;;6.28;;
75885;SDS011;64561;44.018;10.144;2023-07-13T08:41:09;13.07;;;6.07;;
75885;SDS011;64561;44.018;10.144;2023-07-13T08:43:42;12.80;;;6.30;;
75885;SDS011;64561;44.018;10.144;2023-07-13T08:48:58;16.35;;;6.85;;
75885;SDS011;64561;44.018;10.144;2023-07-13T08:57:12;13.65;;;5.72;;
75885;SDS011;64561;44.018;10.144;2023-07-13T08:59:41;15.80;;;6.18;;
75885;SDS011;64561;44.018;10.144;2023-07-13T09:03:55;7.15;;;4.38;;
75885;SDS011;64561;44.018;10.144;2023-07-13T09:07:16;15.80;;;5.70;;
75885;SDS011;64561;44.018;10.144;2023-07-13T09:15:41;9.88;;;3.10;;
75885;SDS011;64561;44.018;10.144;2023-07-13T09:18:16;5.65;;;2.20;;
75885;SDS011;64561;44.018;10.144;2023-07-13T09:20:57;4.85;;;2.15;;
75885;SDS011;64561;44.018;10.144;2023-07-13T09:23:29;6.93;;;2.42;;
75885;SDS011;64561;44.018;10.144;2023-07-13T09:26:05;6.28;;;2.90;;
75885;SDS011;64561;44.018;10.144;2023-07-13T09:28:41;5.60;;;3.17;;
75885;SDS011;64561;44.018;10.144;2023-07-13T09:31:14;5.93;;;3.22;;
75885;SDS011;64561;44.018;10.144;2023-07-13T09:33:46;5.88;;;3.45;;
75885;SDS011;64561;44.018;10.144;2023-07-13T09:36:32;6.35;;;4.00;;
75885;SDS011;64561;44.018;10.144;2023-07-13T09:44:51;12.13;;;4.80;;
75885;SDS011;64561;44.018;10.144;2023-07-13T09:47:27;17.85;;;6.93;;
75885;SDS011;64561;44.018;10.144;2023-07-13T09:50:03;9.90;;;4.55;;
75885;SDS011;64561;44.018;10.144;2023-07-13T09:52:43;7.10;;;3.28;;
75885;SDS011;64561;44.018;10.144;2023-07-13T09:55:25;7.35;;;3.40;;
75885;SDS011;64561;44.018;10.144;2023-07-13T09:57:57;7.78;;;3.85;;
75885;SDS011;64561;44.018;10.144;2023-07-13T10:00:28;15.75;;;6.63;;
75885;SDS011;64561;44.018;10.144;2023-07-13T10:03:04;20.60;;;7.75;;
75885;SDS011;64561;44.018;10.144;2023-07-13T10:05:42;13.65;;;7.47;;
75885;SDS011;64561;44.018;10.144;2023-07-13T10:08:25;15.48;;;6.97;;
75885;SDS011;64561;44.018;10.144;2023-07-13T10:10:59;12.80;;;6.85;;
75885;SDS011;64561;44.018;10.144;2023-07-13T10:16:01;15.80;;;7.40;;
75885;SDS011;64561;44.018;10.144;2023-07-13T10:18:29;15.93;;;8.10;;
75885;SDS011;64561;44.018;10.144;2023-07-13T10:21:20;14.23;;;7.63;;
75885;SDS011;64561;44.018;10.144;2023-07-13T10:23:54;18.30;;;8.27;;
75885;SDS011;64561;44.018;10.144;2023-07-13T10:26:26;18.10;;;8.57;;
75885;SDS011;64561;44.018;10.144;2023-07-13T10:28:59;16.52;;;7.38;;
75885;SDS011;64561;44.018;10.144;2023-07-13T10:31:39;24.90;;;12.60;;
75885;SDS011;64561;44.018;10.144;2023-07-13T10:34:09;15.98;;;8.48;;
75885;SDS011;64561;44.018;10.144;2023-07-13T10:39:10;14.32;;;7.43;;
75885;SDS011;64561;44.018;10.144;2023-07-13T10:41:43;24.75;;;8.85;;
75885;SDS011;64561;44.018;10.144;2023-07-13T10:44:20;17.92;;;8.63;;
75885;SDS011;64561;44.018;10.144;2023-07-13T10:46:57;19.98;;;7.40;;
75885;SDS011;64561;44.018;10.144;2023-07-13T10:49:27;16.50;;;8.13;;
75885;SDS011;64561;44.018;10.144;2023-07-13T10:54:34;15.77;;;7.88;;
75885;SDS011;64561;44.018;10.144;2023-07-13T10:59:36;19.58;;;7.65;;
75885;SDS011;64561;44.018;10.144;2023-07-13T11:05:13;15.75;;;7.47;;
75885;SDS011;64561;44.018;10.144;2023-07-13T11:07:52;17.00;;;7.88;;
75885;SDS011;64561;44.018;10.144;2023-07-13T11:16:13;19.77;;;8.48;;
75885;SDS011;64561;44.018;10.144;2023-07-13T11:21:32;15.77;;;8.05;;
75885;SDS011;64561;44.018;10.144;2023-07-13T11:24:04;15.68;;;8.13;;
75885;SDS011;64561;44.018;10.144;2023-07-13T11:26:38;20.73;;;8.35;;
75885;SDS011;64561;44.018;10.144;2023-07-13T11:31:54;19.58;;;8.15;;
75885;SDS011;64561;44.018;10.144;2023-07-13T11:34:30;17.63;;;8.43;;
75885;SDS011;64561;44.018;10.144;2023-07-13T11:37:02;22.13;;;8.23;;
75885;SDS011;64561;44.018;10.144;2023-07-13T11:39:30;18.35;;;7.75;;
75885;SDS011;64561;44.018;10.144;2023-07-13T11:42:05;17.40;;;8.00;;
75885;SDS011;64561;44.018;10.144;2023-07-13T11:44:41;18.95;;;8.38;;
75885;SDS011;64561;44.018;10.144;2023-07-13T11:47:30;17.10;;;7.47;;
75885;SDS011;64561;44.018;10.144;2023-07-13T11:49:58;18.20;;;9.05;;
75885;SDS011;64561;44.018;10.144;2023-07-13T11:52:32;12.05;;;7.30;;
75885;SDS011;64561;44.018;10.144;2023-07-13T11:55:04;13.40;;;6.80;;
75885;SDS011;64561;44.018;10.144;2023-07-13T11:57:44;15.98;;;8.38;;
75885;SDS011;64561;44.018;10.144;2023-07-13T12:00:20;17.50;;;8.15;;
75885;SDS011;64561;44.018;10.144;2023-07-13T12:02:51;14.95;;;8.07;;
75885;SDS011;64561;44.018;10.144;2023-07-13T12:05:21;17.30;;;8.23;;
75885;SDS011;64561;44.018;10.144;2023-07-13T12:07:49;13.27;;;8.07;;
75885;SDS011;64561;44.018;10.144;2023-07-13T12:10:19;16.73;;;8.52;;
75885;SDS011;64561;44.018;10.144;2023-07-13T12:15:21;19.17;;;7.63;;
75885;SDS011;64561;44.018;10.144;2023-07-13T12:17:49;16.20;;;7.95;;
75885;SDS011;64561;44.018;10.144;2023-07-13T12:20:19;16.42;;;8.38;;
75885;SDS011;64561;44.018;10.144;2023-07-13T12:22:53;18.50;;;8.55;;
75885;SDS011;64561;44.018;10.144;2023-07-13T12:25:22;17.48;;;7.50;;
75885;SDS011;64561;44.018;10.144;2023-07-13T12:27:56;14.52;;;7.32;;
75885;SDS011;64561;44.018;10.144;2023-07-13T12:32:59;15.30;;;7.72;;
75885;SDS011;64561;44.018;10.144;2023-07-13T12:35:29;16.90;;;7.13;;
75885;SDS011;64561;44.018;10.144;2023-07-13T12:37:57;18.63;;;7.72;;
75885;SDS011;64561;44.018;10.144;2023-07-13T12:40:34;20.83;;;8.02;;
75885;SDS011;64561;44.018;10.144;2023-07-13T12:43:03;15.23;;;7.47;;
75885;SDS011;64561;44.018;10.144;2023-07-13T12:45:33;20.85;;;8.55;;
75885;SDS011;64561;44.018;10.144;2023-07-13T12:48:05;18.23;;;8.18;;
75885;SDS011;64561;44.018;10.144;2023-07-13T12:50:40;17.00;;;7.70;;
75885;SDS011;64561;44.018;10.144;2023-07-13T12:53:12;21.33;;;8.70;;
75885;SDS011;64561;44.018;10.144;2023-07-13T12:55:42;18.73;;;7.93;;
75885;SDS011;64561;44.018;10.144;2023-07-13T12:58:13;12.68;;;7.45;;
75885;SDS011;64561;44.018;10.144;2023-07-13T13:00:48;13.57;;;8.13;;
75885;SDS011;64561;44.018;10.144;2023-07-13T13:03:24;15.45;;;8.10;;
75885;SDS011;64561;44.018;10.144;2023-07-13T13:06:00;21.25;;;8.73;;
75885;SDS011;64561;44.018;10.144;2023-07-13T13:08:55;18.48;;;8.73;;
75885;SDS011;64561;44.018;10.144;2023-07-13T13:11:28;14.98;;;8.55;;
75885;SDS011;64561;44.018;10.144;2023-07-13T13:13:57;20.45;;;8.90;;
75885;SDS011;64561;44.018;10.144;2023-07-13T13:18:54;16.13;;;8.05;;
75885;SDS011;64561;44.018;10.144;2023-07-13T13:21:24;17.70;;;8.75;;
75885;SDS011;64561;44.018;10.144;2023-07-13T13:23:52;17.20;;;8.15;;
75885;SDS011;64561;44.018;10.144;2023-07-13T13:26:21;22.55;;;8.27;;
75885;SDS011;64561;44.018;10.144;2023-07-13T13:28:49;16.20;;;8.98;;
75885;SDS011;64561;44.018;10.144;2023-07-13T13:31:16;14.65;;;8.27;;
75885;SDS011;64561;44.018;10.144;2023-07-13T13:33:44;15.85;;;8.95;;
75885;SDS011;64561;44.018;10.144;2023-07-13T13:36:20;19.67;;;7.88;;
75885;SDS011;64561;44.018;10.144;2023-07-13T13:38:50;18.00;;;8.30;;
75885;SDS011;64561;44.018;10.144;2023-07-13T13:41:17;16.00;;;8.13;;
75885;SDS011;64561;44.018;10.144;2023-07-13T13:43:44;18.17;;;9.40;;
75885;SDS011;64561;44.018;10.144;2023-07-13T13:46:16;18.08;;;8.48;;
75885;SDS011;64561;44.018;10.144;2023-07-13T13:48:46;15.00;;;7.88;;
75885;SDS011;64561;44.018;10.144;2023-07-13T13:51:17;17.17;;;8.98;;
75885;SDS011;64561;44.018;10.144;2023-07-13T13:53:46;17.77;;;8.43;;
75885;SDS011;64561;44.018;10.144;2023-07-13T13:56:15;15.23;;;8.70;;
75885;SDS011;64561;44.018;10.144;2023-07-13T13:58:44;16.63;;;8.65;;
75885;SDS011;64561;44.018;10.144;2023-07-13T14:01:12;21.10;;;8.15;;
75885;SDS011;64561;44.018;10.144;2023-07-13T14:03:43;18.13;;;8.40;;
75885;SDS011;64561;44.018;10.144;2023-07-13T14:06:14;24.45;;;9.45;;
75885;SDS011;64561;44.018;10.144;2023-07-13T14:08:42;20.02;;;8.57;;
75885;SDS011;64561;44.018;10.144;2023-07-13T14:11:11;20.25;;;8.75;;
75885;SDS011;64561;44.018;10.144;2023-07-13T14:13:41;21.42;;;8.73;;
75885;SDS011;64561;44.018;10.144;2023-07-13T14:16:19;17.42;;;8.43;;
75885;SDS011;64561;44.018;10.144;2023-07-13T14:18:49;17.98;;;8.30;;
75885;SDS011;64561;44.018;10.144;2023-07-13T14:21:19;14.90;;;8.20;;
75885;SDS011;64561;44.018;10.144;2023-07-13T14:26:19;15.98;;;8.50;;
75885;SDS011;64561;44.018;10.144;2023-07-13T14:28:49;16.10;;;9.27;;
75885;SDS011;64561;44.018;10.144;2023-07-13T14:31:19;19.25;;;8.48;;
75885;SDS011;64561;44.018;10.144;2023-07-13T14:33:47;17.80;;;8.52;;
75885;SDS011;64561;44.018;10.144;2023-07-13T14:38:50;20.40;;;9.00;;
75885;SDS011;64561;44.018;10.144;2023-07-13T14:41:17;18.00;;;9.15;;
75885;SDS011;64561;44.018;10.144;2023-07-13T14:43:44;19.90;;;8.43;;
75885;SDS011;64561;44.018;10.144;2023-07-13T14:46:26;26.73;;;8.65;;
75885;SDS011;64561;44.018;10.144;2023-07-13T14:49:16;18.67;;;8.90;;
75885;SDS011;64561;44.018;10.144;2023-07-13T14:51:46;18.17;;;9.32;;
75885;SDS011;64561;44.018;10.144;2023-07-13T14:54:13;13.77;;;8.13;;
75885;SDS011;64561;44.018;10.144;2023-07-13T14:56:41;20.15;;;8.90;;
75885;SDS011;64561;44.018;10.144;2023-07-13T14:59:08;22.33;;;9.25;;
75885;SDS011;64561;44.018;10.144;2023-07-13T15:01:36;19.08;;;9.43;;
75885;SDS011;64561;44.018;10.144;2023-07-13T15:04:05;17.65;;;9.38;;
75885;SDS011;64561;44.018;10.144;2023-07-13T15:06:52;17.38;;;9.05;;
75885;SDS011;64561;44.018;10.144;2023-07-13T15:09:29;21.83;;;8.93;;
75885;SDS011;64561;44.018;10.144;2023-07-13T15:11:56;16.63;;;8.63;;
75885;SDS011;64561;44.018;10.144;2023-07-13T15:14:25;17.30;;;8.13;;
75885;SDS011;64561;44.018;10.144;2023-07-13T15:16:53;16.75;;;7.90;;
75885;SDS011;64561;44.018;10.144;2023-07-13T15:19:23;19.60;;;7.90;;
75885;SDS011;64561;44.018;10.144;2023-07-13T15:21:52;23.20;;;9.32;;
75885;SDS011;64561;44.018;10.144;2023-07-13T15:24:22;16.42;;;8.15;;
75885;SDS011;64561;44.018;10.144;2023-07-13T15:26:50;16.77;;;8.27;;
75885;SDS011;64561;44.018;10.144;2023-07-13T15:29:19;14.80;;;8.30;;
75885;SDS011;64561;44.018;10.144;2023-07-13T15:31:46;21.92;;;8.70;;
75885;SDS011;64561;44.018;10.144;2023-07-13T15:34:14;15.38;;;8.48;;
75885;SDS011;64561;44.018;10.144;2023-07-13T15:36:43;25.92;;;12.25;;
75885;SDS011;64561;44.018;10.144;2023-07-13T15:39:16;18.17;;;8.10;;
75885;SDS011;64561;44.018;10.144;2023-07-13T15:41:44;18.52;;;7.90;;
75885;SDS011;64561;44.018;10.144;2023-07-13T15:44:24;20.95;;;8.20;;